sensor_id;sensor_type;location;lat;lon;timestamp;P1;durP1;ratioP1;P2;durP2;ratioP2
13590;SDS011;6866;50.778;7.206;2023-04-06T00:00:55;13.57;;;7.53;;
13590;SDS011;6866;50.778;7.206;2023-04-06T00:03:21;12.05;;;6.75;;
13590;SDS011;6866;50.778;7.206;2023-04-06T00:05:47;12.68;;;7.00;;
13590;SDS011;6866;50.778;7.206;2023-04-06T00:08:13;14.55;;;7.18;;
13590;SDS011;6866;50.778;7.206;2023-04-06T00:10:38;13.13;;;7.47;;
13590;SDS011;6866;50.778;7.206;2023-04-06T00:13:04;16.30;;;7.50;;
13590;SDS011;6866;50.778;7.206;2023-04-06T00:15:31;11.98;;;7.53;;
13590;SDS011;6866;50.778;7.206;2023-04-06T00:17:56;13.05;;;7.28;;
13590;SDS011;6866;50.778;7.206;2023-04-06T00:20:22;16.10;;;7.28;;
13590;SDS011;6866;50.778;7.206;2023-04-06T00:22:48;13.57;;;7.15;;
13590;SDS011;6866;50.778;7.206;2023-04-06T00:25:14;15.68;;;7.60;;
13590;SDS011;6866;50.778;7.206;2023-04-06T00:27:40;12.52;;;7.28;;
13590;SDS011;6866;50.778;7.206;2023-04-06T00:30:06;12.60;;;7.45;;
13590;SDS011;6866;50.778;7.206;2023-04-06T00:32:32;12.25;;;6.88;;
13590;SDS011;6866;50.778;7.206;2023-04-06T00:34:59;11.75;;;6.90;;
13590;SDS011;6866;50.778;7.206;2023-04-06T00:37:25;10.57;;;6.70;;
13590;SDS011;6866;50.778;7.206;2023-04-06T00:39:50;13.90;;;7.00;;
13590;SDS011;6866;50.778;7.206;2023-04-06T00:42:18;11.82;;;6.50;;
13590;SDS011;6866;50.778;7.206;2023-04-06T00:44:51;14.65;;;7.45;;
13590;SDS011;6866;50.778;7.206;2023-04-06T00:47:21;12.40;;;6.75;;
13590;SDS011;6866;50.778;7.206;2023-04-06T00:49:47;13.50;;;7.25;;
13590;SDS011;6866;50.778;7.206;2023-04-06T00:52:12;14.32;;;7.55;;
13590;SDS011;6866;50.778;7.206;2023-04-06T00:54:38;12.68;;;7.47;;
13590;SDS011;6866;50.778;7.206;2023-04-06T00:57:04;14.73;;;7.82;;
13590;SDS011;6866;50.778;7.206;2023-04-06T00:59:30;12.27;;;7.18;;
13590;SDS011;6866;50.778;7.206;2023-04-06T01:04:32;12.20;;;7.07;;
13590;SDS011;6866;50.778;7.206;2023-04-06T01:06:57;13.93;;;7.35;;
13590;SDS011;6866;50.778;7.206;2023-04-06T01:09:23;14.25;;;6.82;;
13590;SDS011;6866;50.778;7.206;2023-04-06T01:11:49;14.07;;;7.40;;
13590;SDS011;6866;50.778;7.206;2023-04-06T01:14:14;12.95;;;7.60;;
13590;SDS011;6866;50.778;7.206;2023-04-06T01:16:40;14.65;;;8.40;;
13590;SDS011;6866;50.778;7.206;2023-04-06T01:19:10;14.65;;;7.60;;
13590;SDS011;6866;50.778;7.206;2023-04-06T01:21:37;15.50;;;7.40;;
13590;SDS011;6866;50.778;7.206;2023-04-06T01:24:03;13.15;;;7.00;;
13590;SDS011;6866;50.778;7.206;2023-04-06T01:26:29;12.00;;;6.82;;
13590;SDS011;6866;50.778;7.206;2023-04-06T01:28:55;11.35;;;6.85;;
13590;SDS011;6866;50.778;7.206;2023-04-06T01:31:21;14.73;;;7.47;;
13590;SDS011;6866;50.778;7.206;2023-04-06T01:33:48;13.55;;;7.60;;
13590;SDS011;6866;50.778;7.206;2023-04-06T01:36:14;15.90;;;7.20;;
13590;SDS011;6866;50.778;7.206;2023-04-06T01:38:40;11.73;;;6.68;;
13590;SDS011;6866;50.778;7.206;2023-04-06T01:41:06;14.73;;;7.30;;
13590;SDS011;6866;50.778;7.206;2023-04-06T01:43:32;11.85;;;7.20;;
13590;SDS011;6866;50.778;7.206;2023-04-06T01:45:58;11.45;;;7.10;;
13590;SDS011;6866;50.778;7.206;2023-04-06T01:48:23;11.27;;;6.47;;
13590;SDS011;6866;50.778;7.206;2023-04-06T01:50:49;12.50;;;7.95;;
13590;SDS011;6866;50.778;7.206;2023-04-06T01:53:14;11.40;;;7.20;;
13590;SDS011;6866;50.778;7.206;2023-04-06T01:55:41;12.30;;;6.85;;
13590;SDS011;6866;50.778;7.206;2023-04-06T01:58:06;14.95;;;7.43;;
13590;SDS011;6866;50.778;7.206;2023-04-06T02:00:32;12.95;;;7.07;;
13590;SDS011;6866;50.778;7.206;2023-04-06T02:02:58;11.82;;;7.07;;
13590;SDS011;6866;50.778;7.206;2023-04-06T02:05:23;13.18;;;7.10;;
13590;SDS011;6866;50.778;7.206;2023-04-06T02:07:49;13.07;;;7.28;;
13590;SDS011;6866;50.778;7.206;2023-04-06T02:10:16;12.80;;;7.40;;
13590;SDS011;6866;50.778;7.206;2023-04-06T02:12:42;15.35;;;7.43;;
13590;SDS011;6866;50.778;7.206;2023-04-06T02:15:07;15.00;;;7.38;;
13590;SDS011;6866;50.778;7.206;2023-04-06T02:17:33;13.35;;;7.35;;
13590;SDS011;6866;50.778;7.206;2023-04-06T02:19:59;13.52;;;7.15;;
13590;SDS011;6866;50.778;7.206;2023-04-06T02:22:24;12.82;;;7.45;;
13590;SDS011;6866;50.778;7.206;2023-04-06T02:24:50;13.57;;;7.40;;
13590;SDS011;6866;50.778;7.206;2023-04-06T02:27:15;12.65;;;7.43;;
13590;SDS011;6866;50.778;7.206;2023-04-06T02:29:41;12.77;;;7.07;;
13590;SDS011;6866;50.778;7.206;2023-04-06T02:32:06;15.80;;;7.80;;
13590;SDS011;6866;50.778;7.206;2023-04-06T02:34:32;13.00;;;7.40;;
13590;SDS011;6866;50.778;7.206;2023-04-06T02:36:57;13.52;;;6.90;;
13590;SDS011;6866;50.778;7.206;2023-04-06T02:39:23;13.60;;;8.00;;
13590;SDS011;6866;50.778;7.206;2023-04-06T02:41:49;14.27;;;7.30;;
13590;SDS011;6866;50.778;7.206;2023-04-06T02:44:15;14.85;;;8.35;;
13590;SDS011;6866;50.778;7.206;2023-04-06T02:46:40;10.82;;;7.18;;
13590;SDS011;6866;50.778;7.206;2023-04-06T02:49:06;14.20;;;7.07;;
13590;SDS011;6866;50.778;7.206;2023-04-06T02:51:31;12.55;;;7.28;;
13590;SDS011;6866;50.778;7.206;2023-04-06T02:53:58;15.70;;;7.47;;
13590;SDS011;6866;50.778;7.206;2023-04-06T02:56:23;13.68;;;7.35;;
13590;SDS011;6866;50.778;7.206;2023-04-06T02:58:49;10.52;;;7.03;;
13590;SDS011;6866;50.778;7.206;2023-04-06T03:01:15;12.82;;;7.43;;
13590;SDS011;6866;50.778;7.206;2023-04-06T03:03:41;16.15;;;7.47;;
13590;SDS011;6866;50.778;7.206;2023-04-06T03:06:06;14.48;;;7.43;;
13590;SDS011;6866;50.778;7.206;2023-04-06T03:08:32;11.90;;;7.07;;
13590;SDS011;6866;50.778;7.206;2023-04-06T03:10:57;11.43;;;7.05;;
13590;SDS011;6866;50.778;7.206;2023-04-06T03:13:23;13.57;;;7.80;;
13590;SDS011;6866;50.778;7.206;2023-04-06T03:15:48;12.10;;;7.38;;
13590;SDS011;6866;50.778;7.206;2023-04-06T03:18:14;16.27;;;7.63;;
13590;SDS011;6866;50.778;7.206;2023-04-06T03:20:40;11.02;;;7.07;;
13590;SDS011;6866;50.778;7.206;2023-04-06T03:23:05;12.40;;;7.57;;
13590;SDS011;6866;50.778;7.206;2023-04-06T03:25:31;14.10;;;7.10;;
13590;SDS011;6866;50.778;7.206;2023-04-06T03:27:56;12.55;;;7.30;;
13590;SDS011;6866;50.778;7.206;2023-04-06T03:30:22;14.40;;;7.32;;
13590;SDS011;6866;50.778;7.206;2023-04-06T03:32:47;14.05;;;7.85;;
13590;SDS011;6866;50.778;7.206;2023-04-06T03:35:13;11.05;;;7.18;;
13590;SDS011;6866;50.778;7.206;2023-04-06T03:37:39;11.60;;;7.10;;
13590;SDS011;6866;50.778;7.206;2023-04-06T03:40:05;15.32;;;7.85;;
13590;SDS011;6866;50.778;7.206;2023-04-06T03:42:31;12.70;;;7.72;;
13590;SDS011;6866;50.778;7.206;2023-04-06T03:44:57;12.95;;;7.55;;
13590;SDS011;6866;50.778;7.206;2023-04-06T03:47:23;12.23;;;6.93;;
13590;SDS011;6866;50.778;7.206;2023-04-06T03:49:48;15.38;;;8.00;;
13590;SDS011;6866;50.778;7.206;2023-04-06T03:52:14;15.05;;;8.45;;
13590;SDS011;6866;50.778;7.206;2023-04-06T03:54:40;15.65;;;8.20;;
13590;SDS011;6866;50.778;7.206;2023-04-06T03:57:05;13.13;;;7.45;;
13590;SDS011;6866;50.778;7.206;2023-04-06T03:59:31;13.05;;;8.00;;
13590;SDS011;6866;50.778;7.206;2023-04-06T04:01:56;12.70;;;7.75;;
13590;SDS011;6866;50.778;7.206;2023-04-06T04:04:22;13.30;;;7.43;;
13590;SDS011;6866;50.778;7.206;2023-04-06T04:06:47;13.82;;;7.63;;
13590;SDS011;6866;50.778;7.206;2023-04-06T04:09:13;15.48;;;7.53;;
13590;SDS011;6866;50.778;7.206;2023-04-06T04:11:38;15.02;;;7.82;;
13590;SDS011;6866;50.778;7.206;2023-04-06T04:14:04;13.52;;;7.55;;
13590;SDS011;6866;50.778;7.206;2023-04-06T04:16:29;12.98;;;7.97;;
13590;SDS011;6866;50.778;7.206;2023-04-06T04:18:55;15.55;;;8.07;;
13590;SDS011;6866;50.778;7.206;2023-04-06T04:21:22;15.38;;;7.43;;
13590;SDS011;6866;50.778;7.206;2023-04-06T04:23:48;15.32;;;7.63;;
13590;SDS011;6866;50.778;7.206;2023-04-06T04:26:14;15.73;;;7.82;;
13590;SDS011;6866;50.778;7.206;2023-04-06T04:28:40;13.90;;;7.40;;
13590;SDS011;6866;50.778;7.206;2023-04-06T04:31:05;12.25;;;7.18;;
13590;SDS011;6866;50.778;7.206;2023-04-06T04:33:31;14.02;;;7.80;;
13590;SDS011;6866;50.778;7.206;2023-04-06T04:35:56;15.68;;;7.35;;
13590;SDS011;6866;50.778;7.206;2023-04-06T04:38:22;16.67;;;7.47;;
13590;SDS011;6866;50.778;7.206;2023-04-06T04:40:48;15.13;;;7.70;;
13590;SDS011;6866;50.778;7.206;2023-04-06T04:43:13;12.35;;;7.60;;
13590;SDS011;6866;50.778;7.206;2023-04-06T04:45:39;16.75;;;7.38;;
13590;SDS011;6866;50.778;7.206;2023-04-06T04:48:05;15.52;;;7.72;;
13590;SDS011;6866;50.778;7.206;2023-04-06T04:50:31;16.20;;;7.80;;
13590;SDS011;6866;50.778;7.206;2023-04-06T04:52:57;16.38;;;8.57;;
13590;SDS011;6866;50.778;7.206;2023-04-06T04:55:22;14.00;;;8.02;;
13590;SDS011;6866;50.778;7.206;2023-04-06T04:57:48;22.83;;;8.60;;
13590;SDS011;6866;50.778;7.206;2023-04-06T05:00:13;14.05;;;8.25;;
13590;SDS011;6866;50.778;7.206;2023-04-06T05:02:39;17.70;;;8.07;;
13590;SDS011;6866;50.778;7.206;2023-04-06T05:05:05;16.13;;;8.38;;
13590;SDS011;6866;50.778;7.206;2023-04-06T05:07:32;15.38;;;7.78;;
13590;SDS011;6866;50.778;7.206;2023-04-06T05:09:58;21.70;;;8.38;;
13590;SDS011;6866;50.778;7.206;2023-04-06T05:12:24;16.20;;;7.55;;
13590;SDS011;6866;50.778;7.206;2023-04-06T05:14:50;15.70;;;7.63;;
13590;SDS011;6866;50.778;7.206;2023-04-06T05:17:15;20.00;;;8.40;;
13590;SDS011;6866;50.778;7.206;2023-04-06T05:19:41;21.08;;;10.23;;
13590;SDS011;6866;50.778;7.206;2023-04-06T05:22:06;14.75;;;8.23;;
13590;SDS011;6866;50.778;7.206;2023-04-06T05:24:32;16.88;;;8.52;;
13590;SDS011;6866;50.778;7.206;2023-04-06T05:26:57;23.98;;;9.80;;
13590;SDS011;6866;50.778;7.206;2023-04-06T05:29:25;23.42;;;9.43;;
13590;SDS011;6866;50.778;7.206;2023-04-06T05:31:51;31.08;;;10.23;;
13590;SDS011;6866;50.778;7.206;2023-04-06T05:34:16;35.15;;;10.07;;
13590;SDS011;6866;50.778;7.206;2023-04-06T05:36:42;21.90;;;9.00;;
13590;SDS011;6866;50.778;7.206;2023-04-06T05:39:07;21.15;;;8.63;;
13590;SDS011;6866;50.778;7.206;2023-04-06T05:41:33;26.10;;;9.00;;
13590;SDS011;6866;50.778;7.206;2023-04-06T05:43:58;22.55;;;8.77;;
13590;SDS011;6866;50.778;7.206;2023-04-06T05:46:24;24.67;;;9.05;;
13590;SDS011;6866;50.778;7.206;2023-04-06T05:48:50;18.50;;;8.90;;
13590;SDS011;6866;50.778;7.206;2023-04-06T05:51:15;25.40;;;9.07;;
13590;SDS011;6866;50.778;7.206;2023-04-06T05:53:41;26.65;;;9.40;;
13590;SDS011;6866;50.778;7.206;2023-04-06T05:56:06;33.08;;;10.07;;
13590;SDS011;6866;50.778;7.206;2023-04-06T05:58:32;28.40;;;10.43;;
13590;SDS011;6866;50.778;7.206;2023-04-06T06:00:58;33.92;;;10.35;;
13590;SDS011;6866;50.778;7.206;2023-04-06T06:03:24;36.45;;;11.85;;
13590;SDS011;6866;50.778;7.206;2023-04-06T06:05:50;45.85;;;13.02;;
13590;SDS011;6866;50.778;7.206;2023-04-06T06:08:15;47.78;;;13.65;;
13590;SDS011;6866;50.778;7.206;2023-04-06T06:10:41;44.03;;;12.88;;
13590;SDS011;6866;50.778;7.206;2023-04-06T06:13:06;48.28;;;15.50;;
13590;SDS011;6866;50.778;7.206;2023-04-06T06:15:32;47.25;;;15.88;;
13590;SDS011;6866;50.778;7.206;2023-04-06T06:17:58;38.15;;;16.08;;
13590;SDS011;6866;50.778;7.206;2023-04-06T06:20:23;44.25;;;15.43;;
13590;SDS011;6866;50.778;7.206;2023-04-06T06:22:49;39.22;;;14.90;;
13590;SDS011;6866;50.778;7.206;2023-04-06T06:25:15;41.72;;;15.15;;
13590;SDS011;6866;50.778;7.206;2023-04-06T06:27:40;38.60;;;14.55;;
13590;SDS011;6866;50.778;7.206;2023-04-06T06:30:07;41.38;;;13.20;;
13590;SDS011;6866;50.778;7.206;2023-04-06T06:32:33;34.47;;;12.13;;
13590;SDS011;6866;50.778;7.206;2023-04-06T06:34:58;32.90;;;13.00;;
13590;SDS011;6866;50.778;7.206;2023-04-06T06:37:24;53.55;;;14.98;;
13590;SDS011;6866;50.778;7.206;2023-04-06T06:39:49;39.00;;;13.48;;
13590;SDS011;6866;50.778;7.206;2023-04-06T06:42:15;54.78;;;14.32;;
13590;SDS011;6866;50.778;7.206;2023-04-06T06:44:41;44.53;;;13.95;;
13590;SDS011;6866;50.778;7.206;2023-04-06T06:47:06;41.13;;;17.02;;
13590;SDS011;6866;50.778;7.206;2023-04-06T06:51:57;47.20;;;18.67;;
13590;SDS011;6866;50.778;7.206;2023-04-06T06:54:23;39.42;;;15.45;;
13590;SDS011;6866;50.778;7.206;2023-04-06T06:56:48;25.40;;;10.13;;
13590;SDS011;6866;50.778;7.206;2023-04-06T06:59:14;18.33;;;8.25;;
13590;SDS011;6866;50.778;7.206;2023-04-06T07:01:41;12.88;;;7.47;;
13590;SDS011;6866;50.778;7.206;2023-04-06T07:04:06;18.35;;;6.93;;
13590;SDS011;6866;50.778;7.206;2023-04-06T07:06:33;19.88;;;7.35;;
13590;SDS011;6866;50.778;7.206;2023-04-06T07:09:00;11.02;;;6.55;;
13590;SDS011;6866;50.778;7.206;2023-04-06T07:11:28;12.20;;;6.40;;
13590;SDS011;6866;50.778;7.206;2023-04-06T07:13:53;16.73;;;7.03;;
13590;SDS011;6866;50.778;7.206;2023-04-06T07:16:19;12.48;;;6.30;;
13590;SDS011;6866;50.778;7.206;2023-04-06T07:18:45;12.35;;;6.60;;
13590;SDS011;6866;50.778;7.206;2023-04-06T07:21:10;14.45;;;6.45;;
13590;SDS011;6866;50.778;7.206;2023-04-06T07:23:36;14.52;;;7.03;;
13590;SDS011;6866;50.778;7.206;2023-04-06T07:26:02;14.15;;;6.15;;
13590;SDS011;6866;50.778;7.206;2023-04-06T07:28:28;14.93;;;6.50;;
13590;SDS011;6866;50.778;7.206;2023-04-06T07:30:53;14.50;;;6.80;;
13590;SDS011;6866;50.778;7.206;2023-04-06T07:33:19;15.07;;;6.90;;
13590;SDS011;6866;50.778;7.206;2023-04-06T07:35:48;15.80;;;7.18;;
13590;SDS011;6866;50.778;7.206;2023-04-06T07:38:13;15.75;;;7.30;;
13590;SDS011;6866;50.778;7.206;2023-04-06T07:40:39;20.48;;;7.60;;
13590;SDS011;6866;50.778;7.206;2023-04-06T07:43:05;16.50;;;7.22;;
13590;SDS011;6866;50.778;7.206;2023-04-06T07:45:31;14.20;;;7.32;;
13590;SDS011;6866;50.778;7.206;2023-04-06T07:47:56;13.63;;;7.03;;
13590;SDS011;6866;50.778;7.206;2023-04-06T07:50:22;14.02;;;6.55;;
13590;SDS011;6866;50.778;7.206;2023-04-06T07:52:47;10.10;;;6.63;;
13590;SDS011;6866;50.778;7.206;2023-04-06T07:55:13;11.80;;;6.80;;
13590;SDS011;6866;50.778;7.206;2023-04-06T07:57:39;11.18;;;6.45;;
13590;SDS011;6866;50.778;7.206;2023-04-06T08:00:05;12.95;;;6.88;;
13590;SDS011;6866;50.778;7.206;2023-04-06T08:02:31;17.13;;;7.53;;
13590;SDS011;6866;50.778;7.206;2023-04-06T08:04:56;16.02;;;7.53;;
13590;SDS011;6866;50.778;7.206;2023-04-06T08:07:22;11.32;;;6.25;;
13590;SDS011;6866;50.778;7.206;2023-04-06T08:09:48;12.38;;;6.28;;
13590;SDS011;6866;50.778;7.206;2023-04-06T08:12:14;13.55;;;7.00;;
13590;SDS011;6866;50.778;7.206;2023-04-06T08:14:39;13.05;;;7.07;;
13590;SDS011;6866;50.778;7.206;2023-04-06T08:17:05;11.50;;;6.70;;
13590;SDS011;6866;50.778;7.206;2023-04-06T08:19:30;12.60;;;7.00;;
13590;SDS011;6866;50.778;7.206;2023-04-06T08:21:56;15.13;;;7.03;;
13590;SDS011;6866;50.778;7.206;2023-04-06T08:24:22;17.30;;;7.75;;
13590;SDS011;6866;50.778;7.206;2023-04-06T08:26:47;17.13;;;7.65;;
13590;SDS011;6866;50.778;7.206;2023-04-06T08:29:13;18.80;;;8.38;;
13590;SDS011;6866;50.778;7.206;2023-04-06T08:31:39;19.55;;;8.38;;
13590;SDS011;6866;50.778;7.206;2023-04-06T08:34:04;12.50;;;8.35;;
13590;SDS011;6866;50.778;7.206;2023-04-06T08:36:30;14.45;;;8.40;;
13590;SDS011;6866;50.778;7.206;2023-04-06T08:38:56;14.52;;;9.00;;
13590;SDS011;6866;50.778;7.206;2023-04-06T08:41:22;13.73;;;9.23;;
13590;SDS011;6866;50.778;7.206;2023-04-06T08:43:48;15.45;;;9.63;;
13590;SDS011;6866;50.778;7.206;2023-04-06T08:46:17;13.55;;;9.18;;
13590;SDS011;6866;50.778;7.206;2023-04-06T08:48:43;12.52;;;8.55;;
13590;SDS011;6866;50.778;7.206;2023-04-06T08:51:10;14.52;;;8.35;;
13590;SDS011;6866;50.778;7.206;2023-04-06T08:53:36;16.00;;;9.80;;
13590;SDS011;6866;50.778;7.206;2023-04-06T08:58:32;15.07;;;9.23;;
13590;SDS011;6866;50.778;7.206;2023-04-06T09:03:28;16.95;;;9.82;;
13590;SDS011;6866;50.778;7.206;2023-04-06T09:05:55;15.07;;;9.27;;
13590;SDS011;6866;50.778;7.206;2023-04-06T09:08:20;14.45;;;8.85;;
13590;SDS011;6866;50.778;7.206;2023-04-06T09:10:46;15.30;;;9.52;;
13590;SDS011;6866;50.778;7.206;2023-04-06T09:13:13;15.35;;;9.00;;
13590;SDS011;6866;50.778;7.206;2023-04-06T09:15:39;14.57;;;9.32;;
13590;SDS011;6866;50.778;7.206;2023-04-06T09:18:05;14.75;;;9.45;;
13590;SDS011;6866;50.778;7.206;2023-04-06T09:20:30;15.38;;;9.13;;
13590;SDS011;6866;50.778;7.206;2023-04-06T09:22:56;15.45;;;9.50;;
13590;SDS011;6866;50.778;7.206;2023-04-06T09:25:22;16.38;;;9.10;;
13590;SDS011;6866;50.778;7.206;2023-04-06T09:27:57;16.33;;;9.50;;
13590;SDS011;6866;50.778;7.206;2023-04-06T09:30:25;15.43;;;9.40;;
13590;SDS011;6866;50.778;7.206;2023-04-06T09:32:52;17.02;;;9.40;;
13590;SDS011;6866;50.778;7.206;2023-04-06T09:35:22;14.00;;;8.88;;
13590;SDS011;6866;50.778;7.206;2023-04-06T09:37:51;15.70;;;9.10;;
13590;SDS011;6866;50.778;7.206;2023-04-06T09:40:17;18.75;;;10.32;;
13590;SDS011;6866;50.778;7.206;2023-04-06T09:42:46;15.95;;;9.10;;
13590;SDS011;6866;50.778;7.206;2023-04-06T09:45:13;18.58;;;9.80;;
13590;SDS011;6866;50.778;7.206;2023-04-06T09:47:39;16.98;;;9.43;;
13590;SDS011;6866;50.778;7.206;2023-04-06T09:50:08;15.68;;;9.57;;
13590;SDS011;6866;50.778;7.206;2023-04-06T09:52:41;16.73;;;9.95;;
13590;SDS011;6866;50.778;7.206;2023-04-06T09:55:08;15.68;;;9.40;;
13590;SDS011;6866;50.778;7.206;2023-04-06T10:00:30;18.15;;;9.85;;
13590;SDS011;6866;50.778;7.206;2023-04-06T10:05:43;16.73;;;9.95;;
13590;SDS011;6866;50.778;7.206;2023-04-06T10:08:26;18.40;;;9.80;;
13590;SDS011;6866;50.778;7.206;2023-04-06T10:10:53;15.60;;;9.32;;
13590;SDS011;6866;50.778;7.206;2023-04-06T10:13:20;17.33;;;9.38;;
13590;SDS011;6866;50.778;7.206;2023-04-06T10:15:46;17.67;;;9.57;;
13590;SDS011;6866;50.778;7.206;2023-04-06T10:18:13;15.95;;;9.80;;
13590;SDS011;6866;50.778;7.206;2023-04-06T10:20:43;19.85;;;10.38;;
13590;SDS011;6866;50.778;7.206;2023-04-06T10:23:19;18.67;;;9.57;;
13590;SDS011;6866;50.778;7.206;2023-04-06T10:25:56;17.08;;;9.27;;
13590;SDS011;6866;50.778;7.206;2023-04-06T10:28:23;20.15;;;10.40;;
13590;SDS011;6866;50.778;7.206;2023-04-06T10:30:49;17.75;;;9.73;;
13590;SDS011;6866;50.778;7.206;2023-04-06T10:33:25;19.98;;;9.65;;
13590;SDS011;6866;50.778;7.206;2023-04-06T10:35:51;20.67;;;10.10;;
13590;SDS011;6866;50.778;7.206;2023-04-06T10:38:16;17.05;;;9.77;;
13590;SDS011;6866;50.778;7.206;2023-04-06T10:40:46;16.50;;;9.95;;
13590;SDS011;6866;50.778;7.206;2023-04-06T10:43:13;20.05;;;9.93;;
13590;SDS011;6866;50.778;7.206;2023-04-06T10:45:43;16.83;;;10.43;;
13590;SDS011;6866;50.778;7.206;2023-04-06T10:48:13;17.35;;;9.98;;
13590;SDS011;6866;50.778;7.206;2023-04-06T10:50:41;17.60;;;10.43;;
13590;SDS011;6866;50.778;7.206;2023-04-06T10:53:08;18.17;;;11.40;;
13590;SDS011;6866;50.778;7.206;2023-04-06T10:55:33;17.30;;;11.07;;
13590;SDS011;6866;50.778;7.206;2023-04-06T10:57:59;21.35;;;12.50;;
13590;SDS011;6866;50.778;7.206;2023-04-06T11:00:25;18.05;;;11.30;;
13590;SDS011;6866;50.778;7.206;2023-04-06T11:02:51;19.98;;;11.02;;
13590;SDS011;6866;50.778;7.206;2023-04-06T11:05:23;18.17;;;11.20;;
13590;SDS011;6866;50.778;7.206;2023-04-06T11:07:49;18.00;;;11.13;;
13590;SDS011;6866;50.778;7.206;2023-04-06T11:10:20;18.23;;;10.30;;
13590;SDS011;6866;50.778;7.206;2023-04-06T11:12:52;17.50;;;10.35;;
13590;SDS011;6866;50.778;7.206;2023-04-06T11:15:19;16.85;;;9.80;;
13590;SDS011;6866;50.778;7.206;2023-04-06T11:17:45;17.35;;;10.27;;
13590;SDS011;6866;50.778;7.206;2023-04-06T11:20:11;17.90;;;10.23;;
13590;SDS011;6866;50.778;7.206;2023-04-06T11:22:52;19.92;;;11.07;;
13590;SDS011;6866;50.778;7.206;2023-04-06T11:25:18;17.02;;;10.48;;
13590;SDS011;6866;50.778;7.206;2023-04-06T11:27:44;17.13;;;10.23;;
13590;SDS011;6866;50.778;7.206;2023-04-06T11:30:11;17.27;;;10.18;;
13590;SDS011;6866;50.778;7.206;2023-04-06T11:32:41;17.83;;;9.77;;
13590;SDS011;6866;50.778;7.206;2023-04-06T11:35:21;21.50;;;10.30;;
13590;SDS011;6866;50.778;7.206;2023-04-06T11:40:15;17.80;;;10.32;;
13590;SDS011;6866;50.778;7.206;2023-04-06T11:42:51;19.60;;;10.82;;
13590;SDS011;6866;50.778;7.206;2023-04-06T11:45:18;17.77;;;10.13;;
13590;SDS011;6866;50.778;7.206;2023-04-06T11:47:44;16.15;;;10.02;;
13590;SDS011;6866;50.778;7.206;2023-04-06T11:50:10;19.40;;;10.90;;
13590;SDS011;6866;50.778;7.206;2023-04-06T11:52:37;18.60;;;10.43;;
13590;SDS011;6866;50.778;7.206;2023-04-06T11:58:01;17.02;;;10.13;;
13590;SDS011;6866;50.778;7.206;2023-04-06T12:00:27;19.92;;;11.00;;
13590;SDS011;6866;50.778;7.206;2023-04-06T12:05:25;16.15;;;9.20;;
13590;SDS011;6866;50.778;7.206;2023-04-06T12:07:50;16.55;;;9.60;;
13590;SDS011;6866;50.778;7.206;2023-04-06T12:10:16;15.95;;;9.50;;
13590;SDS011;6866;50.778;7.206;2023-04-06T12:12:41;17.02;;;9.93;;
13590;SDS011;6866;50.778;7.206;2023-04-06T12:15:07;17.52;;;10.77;;
13590;SDS011;6866;50.778;7.206;2023-04-06T12:17:33;17.05;;;9.50;;
13590;SDS011;6866;50.778;7.206;2023-04-06T12:19:59;16.83;;;10.05;;
13590;SDS011;6866;50.778;7.206;2023-04-06T12:22:24;17.40;;;9.57;;
13590;SDS011;6866;50.778;7.206;2023-04-06T12:24:50;19.92;;;9.63;;
13590;SDS011;6866;50.778;7.206;2023-04-06T12:27:15;14.82;;;9.77;;
13590;SDS011;6866;50.778;7.206;2023-04-06T12:29:41;18.80;;;9.52;;
13590;SDS011;6866;50.778;7.206;2023-04-06T12:32:07;17.92;;;10.15;;
13590;SDS011;6866;50.778;7.206;2023-04-06T12:34:33;17.65;;;9.57;;
13590;SDS011;6866;50.778;7.206;2023-04-06T12:36:59;15.65;;;9.55;;
13590;SDS011;6866;50.778;7.206;2023-04-06T12:39:24;19.38;;;10.55;;
13590;SDS011;6866;50.778;7.206;2023-04-06T12:41:52;15.70;;;9.35;;
13590;SDS011;6866;50.778;7.206;2023-04-06T12:44:18;16.15;;;9.68;;
13590;SDS011;6866;50.778;7.206;2023-04-06T12:46:43;20.23;;;9.30;;
13590;SDS011;6866;50.778;7.206;2023-04-06T12:49:10;14.50;;;9.23;;
13590;SDS011;6866;50.778;7.206;2023-04-06T12:51:36;14.40;;;7.80;;
13590;SDS011;6866;50.778;7.206;2023-04-06T12:54:01;13.05;;;6.57;;
13590;SDS011;6866;50.778;7.206;2023-04-06T12:56:27;10.65;;;6.68;;
13590;SDS011;6866;50.778;7.206;2023-04-06T12:58:53;11.73;;;6.43;;
13590;SDS011;6866;50.778;7.206;2023-04-06T13:01:18;10.60;;;6.88;;
13590;SDS011;6866;50.778;7.206;2023-04-06T13:03:44;11.05;;;7.13;;
13590;SDS011;6866;50.778;7.206;2023-04-06T13:06:10;10.60;;;6.47;;
13590;SDS011;6866;50.778;7.206;2023-04-06T13:08:37;12.18;;;6.53;;
13590;SDS011;6866;50.778;7.206;2023-04-06T13:11:03;11.48;;;6.88;;
13590;SDS011;6866;50.778;7.206;2023-04-06T13:13:30;12.02;;;6.95;;
13590;SDS011;6866;50.778;7.206;2023-04-06T13:16:00;13.98;;;6.95;;
13590;SDS011;6866;50.778;7.206;2023-04-06T13:18:27;13.00;;;6.60;;
13590;SDS011;6866;50.778;7.206;2023-04-06T13:20:54;10.50;;;6.47;;
13590;SDS011;6866;50.778;7.206;2023-04-06T13:23:21;11.63;;;5.97;;
13590;SDS011;6866;50.778;7.206;2023-04-06T13:25:47;12.40;;;6.78;;
13590;SDS011;6866;50.778;7.206;2023-04-06T13:28:12;11.45;;;6.25;;
13590;SDS011;6866;50.778;7.206;2023-04-06T13:30:38;10.80;;;6.25;;
13590;SDS011;6866;50.778;7.206;2023-04-06T13:33:04;10.90;;;6.03;;
13590;SDS011;6866;50.778;7.206;2023-04-06T13:35:31;12.48;;;6.38;;
13590;SDS011;6866;50.778;7.206;2023-04-06T13:37:57;12.20;;;6.70;;
13590;SDS011;6866;50.778;7.206;2023-04-06T13:40:22;10.30;;;5.90;;
13590;SDS011;6866;50.778;7.206;2023-04-06T13:42:48;10.18;;;5.40;;
13590;SDS011;6866;50.778;7.206;2023-04-06T13:45:14;10.57;;;5.50;;
13590;SDS011;6866;50.778;7.206;2023-04-06T13:47:40;9.27;;;5.22;;
13590;SDS011;6866;50.778;7.206;2023-04-06T13:50:06;7.95;;;4.43;;
13590;SDS011;6866;50.778;7.206;2023-04-06T13:52:32;11.10;;;4.90;;
13590;SDS011;6866;50.778;7.206;2023-04-06T13:54:57;9.05;;;4.40;;
13590;SDS011;6866;50.778;7.206;2023-04-06T13:57:23;30.92;;;5.72;;
13590;SDS011;6866;50.778;7.206;2023-04-06T13:59:48;9.88;;;5.45;;
13590;SDS011;6866;50.778;7.206;2023-04-06T14:02:17;10.07;;;5.53;;
13590;SDS011;6866;50.778;7.206;2023-04-06T14:04:44;11.48;;;5.25;;
13590;SDS011;6866;50.778;7.206;2023-04-06T14:07:10;9.40;;;5.10;;
13590;SDS011;6866;50.778;7.206;2023-04-06T14:09:35;8.63;;;5.53;;
13590;SDS011;6866;50.778;7.206;2023-04-06T14:12:01;11.10;;;5.47;;
13590;SDS011;6866;50.778;7.206;2023-04-06T14:14:26;7.97;;;5.07;;
13590;SDS011;6866;50.778;7.206;2023-04-06T14:16:52;7.18;;;4.38;;
13590;SDS011;6866;50.778;7.206;2023-04-06T14:19:19;7.78;;;4.75;;
13590;SDS011;6866;50.778;7.206;2023-04-06T14:21:45;6.78;;;4.22;;
13590;SDS011;6866;50.778;7.206;2023-04-06T14:24:11;7.45;;;3.95;;
13590;SDS011;6866;50.778;7.206;2023-04-06T14:26:39;8.57;;;4.28;;
13590;SDS011;6866;50.778;7.206;2023-04-06T14:29:06;8.73;;;4.88;;
13590;SDS011;6866;50.778;7.206;2023-04-06T14:31:32;9.65;;;5.40;;
13590;SDS011;6866;50.778;7.206;2023-04-06T14:33:58;10.35;;;6.32;;
13590;SDS011;6866;50.778;7.206;2023-04-06T14:36:26;11.68;;;5.85;;
13590;SDS011;6866;50.778;7.206;2023-04-06T14:38:54;9.82;;;5.70;;
13590;SDS011;6866;50.778;7.206;2023-04-06T14:41:22;11.38;;;6.18;;
13590;SDS011;6866;50.778;7.206;2023-04-06T14:43:49;8.98;;;5.90;;
13590;SDS011;6866;50.778;7.206;2023-04-06T14:46:17;10.95;;;5.93;;
13590;SDS011;6866;50.778;7.206;2023-04-06T14:48:44;11.57;;;6.10;;
13590;SDS011;6866;50.778;7.206;2023-04-06T14:51:10;10.45;;;6.32;;
13590;SDS011;6866;50.778;7.206;2023-04-06T14:53:36;12.35;;;6.35;;
13590;SDS011;6866;50.778;7.206;2023-04-06T14:56:02;11.25;;;7.03;;
13590;SDS011;6866;50.778;7.206;2023-04-06T14:58:28;11.38;;;6.70;;
13590;SDS011;6866;50.778;7.206;2023-04-06T15:01:00;12.07;;;6.82;;
13590;SDS011;6866;50.778;7.206;2023-04-06T15:03:27;10.15;;;6.22;;